Time;durP1;ratioP1;P1;durP2;ratioP2;P2;SDS_P1;SDS_P2;PMS_P1;PMS_P2;Temp;Humidity;BMP_temperature;BMP_pressure;BME280_temperature;BME280_humidity;BME280_pressure;Samples;Min_cycle;Max_cycle;Signal;HPM_P1;HPM_P2
2023/10/07 00:02:15;;;;;;;13.10;4.97;;;16.10;99.90;;;;;;5037632;28;20025;-74
2023/10/07 00:04:44;;;;;;;13.88;5.20;;;16.10;99.90;;;;;;5038581;28;20108;-74
2023/10/07 00:07:10;;;;;;;9.50;5.53;;;16.10;99.90;;;;;;5039195;28;20044;-75
2023/10/07 00:09:41;;;;;;;13.88;5.47;;;16.10;99.90;;;;;;5041886;28;20116;-74
2023/10/07 00:12:14;;;;;;;12.40;5.28;;;16.10;99.90;;;;;;5043662;28;20496;-76
2023/10/07 00:14:41;;;;;;;11.98;5.00;;;16.10;99.90;;;;;;5039635;28;20381;-75
2023/10/07 00:17:16;;;;;;;13.77;5.78;;;16.10;99.90;;;;;;5042771;28;20108;-74
2023/10/07 00:19:46;;;;;;;17.55;6.20;;;16.10;99.90;;;;;;5021723;28;20026;-74
2023/10/07 00:22:15;;;;;;;8.10;5.47;;;16.20;99.90;;;;;;5040838;28;20401;-73
2023/10/07 00:24:43;;;;;;;9.52;5.20;;;16.20;99.90;;;;;;5041351;28;20028;-74
2023/10/07 00:27:30;;;;;;;17.25;5.85;;;16.10;99.90;;;;;;5021583;28;20037;-74
2023/10/07 00:29:59;;;;;;;9.80;5.95;;;16.10;99.90;;;;;;5039273;28;20017;-74
2023/10/07 00:32:32;;;;;;;11.50;6.63;;;16.10;99.90;;;;;;5040822;28;20060;-74
2023/10/07 00:35:01;;;;;;;17.17;6.68;;;16.10;99.90;;;;;;5041085;28;20017;-74
2023/10/07 00:37:30;;;;;;;19.98;8.25;;;16.10;99.90;;;;;;5042810;28;20471;-74
2023/10/07 00:40:00;;;;;;;15.68;7.88;;;16.10;99.90;;;;;;5040299;28;20025;-74
2023/10/07 00:42:28;;;;;;;15.90;7.15;;;16.10;99.90;;;;;;5024378;28;20029;-74
2023/10/07 00:44:55;;;;;;;19.58;7.88;;;16.10;99.90;;;;;;5042212;28;20100;-74
2023/10/07 00:47:21;;;;;;;21.40;9.18;;;16.20;99.90;;;;;;5038340;28;20028;-74
2023/10/07 00:52:40;;;;;;;20.58;9.82;;;16.20;99.90;;;;;;5038087;28;20032;-75
2023/10/07 00:55:16;;;;;;;19.60;8.65;;;16.20;99.90;;;;;;5044937;28;20021;-75
2023/10/07 00:57:48;;;;;;;15.88;7.45;;;16.20;99.90;;;;;;5042652;28;20032;-74
2023/10/07 01:02:50;;;;;;;16.48;7.90;;;16.10;99.90;;;;;;5042542;28;20041;-75
2023/10/07 01:05:23;;;;;;;14.13;8.10;;;16.10;99.90;;;;;;5043174;28;20023;-74
2023/10/07 01:07:53;;;;;;;14.02;7.90;;;16.10;99.90;;;;;;5039974;28;20021;-74
2023/10/07 01:10:26;;;;;;;15.43;7.20;;;16.10;99.90;;;;;;5041943;28;20025;-73
2023/10/07 01:12:51;;;;;;;14.82;7.45;;;16.00;99.90;;;;;;5040121;28;20113;-74
2023/10/07 01:15:22;;;;;;;17.17;8.45;;;16.00;99.90;;;;;;5044187;28;20107;-74
2023/10/07 01:18:05;;;;;;;17.45;7.70;;;16.10;99.90;;;;;;5026752;28;20433;-73
2023/10/07 01:21:31;;;;;;;;;;;16.00;99.90;;;;;;5037175;28;20022;-74
2023/10/07 01:23:32;;;;;;;16.63;8.75;;;16.00;99.90;;;;;;5034952;28;20293;-74
2023/10/07 01:25:59;;;;;;;19.35;8.80;;;16.10;99.90;;;;;;5039714;28;20037;-74
2023/10/07 01:28:28;;;;;;;20.27;8.40;;;16.10;99.90;;;;;;5041333;28;20473;-73
2023/10/07 01:31:29;;;;;;;21.48;8.57;;;16.10;99.90;;;;;;5042898;28;20019;-74
2023/10/07 01:33:48;;;;;;;17.23;8.25;;;16.10;99.90;;;;;;5038201;28;20025;-74
2023/10/07 01:36:24;;;;;;;18.40;8.20;;;16.10;99.90;;;;;;5021701;28;20021;-74
2023/10/07 01:38:53;;;;;;;16.30;7.50;;;16.10;99.90;;;;;;5037331;28;20025;-74
2023/10/07 01:41:22;;;;;;;20.65;9.38;;;16.10;99.90;;;;;;5041110;28;20029;-74
2023/10/07 01:44:00;;;;;;;22.90;9.38;;;16.10;99.90;;;;;;5041468;28;20021;-73
2023/10/07 01:46:31;;;;;;;16.83;7.93;;;16.10;99.90;;;;;;5040137;28;20037;-74
2023/10/07 01:49:16;;;;;;;16.23;9.60;;;16.10;99.90;;;;;;5039665;28;20024;-74
2023/10/07 01:51:44;;;;;;;20.73;9.15;;;16.10;99.90;;;;;;5020559;28;20074;-73
2023/10/07 01:54:11;;;;;;;17.20;8.88;;;16.10;99.90;;;;;;5039988;28;20021;-73
2023/10/07 01:56:38;;;;;;;16.88;8.77;;;16.10;99.90;;;;;;5038997;28;20083;-74
2023/10/07 01:59:09;;;;;;;25.00;10.05;;;16.10;99.90;;;;;;5039276;28;20028;-74
2023/10/07 02:01:35;;;;;;;17.95;9.55;;;16.10;99.90;;;;;;5027719;28;20496;-74
2023/10/07 02:04:06;;;;;;;22.77;9.35;;;16.20;99.90;;;;;;5043981;28;20025;-77
2023/10/07 02:06:42;;;;;;;16.02;9.80;;;16.10;99.90;;;;;;5044408;28;20040;-74
2023/10/07 02:09:08;;;;;;;21.10;9.27;;;16.20;99.90;;;;;;5040495;28;20146;-73
2023/10/07 02:11:36;;;;;;;19.15;10.25;;;16.30;99.90;;;;;;5044427;28;20104;-74
2023/10/07 02:14:02;;;;;;;19.52;9.10;;;16.20;99.90;;;;;;5042446;28;20018;-73
2023/10/07 02:16:28;;;;;;;27.08;10.38;;;16.30;99.90;;;;;;5040041;28;20028;-74
2023/10/07 02:18:54;;;;;;;15.63;9.50;;;16.10;99.90;;;;;;5048007;28;20029;-73
2023/10/07 02:21:24;;;;;;;20.30;10.88;;;16.20;99.90;;;;;;5040898;28;20371;-75
2023/10/07 02:23:50;;;;;;;22.02;10.70;;;16.20;99.90;;;;;;5044711;28;20028;-73
2023/10/07 02:26:20;;;;;;;17.50;10.25;;;16.30;99.90;;;;;;5041837;28;20468;-74
2023/10/07 02:28:52;;;;;;;27.30;11.20;;;16.30;99.90;;;;;;5035046;28;20033;-75
2023/10/07 02:31:19;;;;;;;23.35;10.73;;;16.40;99.90;;;;;;5038702;28;20544;-74
2023/10/07 02:33:57;;;;;;;21.75;10.82;;;16.30;99.90;;;;;;5042423;28;20126;-75
2023/10/07 02:36:32;;;;;;;19.98;11.00;;;16.40;99.90;;;;;;5044227;28;20078;-73
2023/10/07 02:39:04;;;;;;;24.30;11.70;;;16.30;99.90;;;;;;5038697;28;20025;-75
2023/10/07 02:41:31;;;;;;;20.80;11.87;;;16.30;99.90;;;;;;5046056;28;20017;-74
2023/10/07 02:44:04;;;;;;;23.73;12.88;;;16.30;99.90;;;;;;5039636;28;20280;-74
2023/10/07 02:46:33;;;;;;;23.08;13.32;;;16.40;99.90;;;;;;5036158;28;20133;-73
2023/10/07 02:49:09;;;;;;;24.08;12.60;;;16.30;99.90;;;;;;5038321;28;20033;-73
2023/10/07 02:51:39;;;;;;;27.08;13.20;;;16.40;99.90;;;;;;5040277;28;20470;-75
2023/10/07 02:55:13;;;;;;;21.88;12.43;;;16.40;99.90;;;;;;5046819;28;20053;-74
2023/10/07 02:57:08;;;;;;;29.20;13.60;;;16.40;99.90;;;;;;5037853;28;20124;-74
2023/10/07 02:59:42;;;;;;;22.27;12.27;;;16.40;99.90;;;;;;5041285;28;20024;-75
2023/10/07 03:02:37;;;;;;;23.33;13.05;;;16.40;99.90;;;;;;5031398;28;20644;-74
2023/10/07 03:05:13;;;;;;;21.33;12.70;;;16.50;99.90;;;;;;5040259;28;20034;-75
2023/10/07 03:07:49;;;;;;;23.98;12.63;;;16.50;99.90;;;;;;5032010;28;20127;-75
2023/10/07 03:10:18;;;;;;;21.38;10.45;;;16.50;99.90;;;;;;5042044;28;20529;-73
2023/10/07 03:12:48;;;;;;;22.77;11.60;;;16.50;99.90;;;;;;5026087;28;20021;-73
2023/10/07 03:15:29;;;;;;;26.00;11.63;;;16.50;99.90;;;;;;5042503;28;20028;-75
2023/10/07 03:17:55;;;;;;;23.92;12.27;;;16.60;99.90;;;;;;5048934;28;20108;-74
2023/10/07 03:20:28;;;;;;;15.63;10.68;;;16.50;99.90;;;;;;5045159;28;20047;-75
2023/10/07 03:23:14;;;;;;;;;;;16.60;99.90;;;;;;5043787;28;20110;-75
2023/10/07 03:28:38;;;;;;;27.92;12.95;;;16.60;99.90;;;;;;5045740;28;20038;-75
2023/10/07 03:31:13;;;;;;;21.63;11.65;;;16.70;99.90;;;;;;5043912;28;20033;-74
2023/10/07 03:33:50;;;;;;;23.23;11.43;;;16.70;99.90;;;;;;5041010;28;20017;-74
2023/10/07 03:38:50;;;;;;;25.35;12.63;;;16.70;99.90;;;;;;5039024;28;20385;-75
2023/10/07 03:41:18;;;;;;;24.05;11.07;;;16.70;99.90;;;;;;5045739;28;20020;-74
2023/10/07 03:43:46;;;;;;;24.42;11.13;;;16.70;99.90;;;;;;5043345;28;20017;-74
2023/10/07 03:46:15;;;;;;;21.75;12.23;;;16.70;99.90;;;;;;5040132;28;20257;-74
2023/10/07 03:48:43;;;;;;;19.63;10.75;;;16.70;99.90;;;;;;5031191;28;20036;-79
2023/10/07 03:51:12;;;;;;;22.02;10.90;;;16.70;99.90;;;;;;5049509;28;20017;-77
2023/10/07 03:53:44;;;;;;;20.63;11.00;;;16.70;99.90;;;;;;5041008;28;20199;-78
2023/10/07 03:56:11;;;;;;;20.35;10.23;;;16.70;99.90;;;;;;5039432;28;20082;-77
2023/10/07 03:58:37;;;;;;;19.45;10.35;;;16.70;99.90;;;;;;5034904;28;20470;-77
2023/10/07 04:01:11;;;;;;;21.00;10.98;;;16.70;99.90;;;;;;5046950;28;20035;-77
2023/10/07 04:03:38;;;;;;;26.00;11.18;;;16.70;99.90;;;;;;5044764;28;20473;-79
2023/10/07 04:06:04;;;;;;;24.67;10.45;;;16.70;99.90;;;;;;5038212;28;20029;-79
2023/10/07 04:08:32;;;;;;;19.95;9.15;;;16.70;99.90;;;;;;5038010;28;20042;-79
2023/10/07 04:10:58;;;;;;;17.25;9.35;;;16.70;99.90;;;;;;5040426;28;20031;-79
2023/10/07 04:13:24;;;;;;;23.42;10.10;;;16.70;99.90;;;;;;5049675;28;20068;-79
2023/10/07 04:15:51;;;;;;;19.05;9.38;;;16.70;99.90;;;;;;5033620;28;20096;-78
2023/10/07 04:18:18;;;;;;;21.40;10.57;;;16.70;99.90;;;;;;5029066;28;20390;-79
2023/10/07 04:23:21;;;;;;;16.73;8.88;;;16.70;99.90;;;;;;5046964;28;20036;-79
2023/10/07 04:25:47;;;;;;;20.00;8.77;;;16.70;99.90;;;;;;5042146;28;20041;-79
2023/10/07 04:28:13;;;;;;;15.93;8.45;;;16.70;99.90;;;;;;5043411;28;20028;-78
2023/10/07 04:30:39;;;;;;;26.13;10.25;;;16.70;99.90;;;;;;5044774;28;20501;-76
2023/10/07 04:33:08;;;;;;;15.90;9.68;;;16.60;99.90;;;;;;5043501;28;20024;-77
2023/10/07 04:35:34;;;;;;;21.30;10.00;;;16.60;99.90;;;;;;5047207;28;20078;-79
2023/10/07 04:38:18;;;;;;;22.00;9.45;;;16.50;99.90;;;;;;5043714;28;20028;-78
2023/10/07 04:41:30;;;;;;;21.70;10.52;;;16.50;99.90;;;;;;5045020;28;20102;-79
2023/10/07 04:46:29;;;;;;;21.02;9.45;;;16.50;99.90;;;;;;5040202;28;20532;-79
2023/10/07 04:53:58;;;;;;;16.55;9.57;;;16.50;99.90;;;;;;5041583;28;20033;-78
2023/10/07 04:56:31;;;;;;;20.90;9.82;;;16.40;99.90;;;;;;5045283;28;20044;-78
2023/10/07 04:59:05;;;;;;;19.83;10.68;;;16.50;99.90;;;;;;5042176;28;20049;-79
2023/10/07 05:01:33;;;;;;;16.00;9.63;;;16.50;99.90;;;;;;5049198;28;20025;-79
2023/10/07 05:04:09;;;;;;;17.73;9.70;;;16.50;99.90;;;;;;5047869;28;20378;-79
2023/10/07 05:06:37;;;;;;;21.30;10.90;;;16.50;99.90;;;;;;5051245;28;20067;-79
2023/10/07 05:09:09;;;;;;;21.48;9.07;;;16.60;99.90;;;;;;5041766;28;20028;-79
2023/10/07 05:11:38;;;;;;;20.08;10.27;;;16.50;99.90;;;;;;5047434;28;20039;-78
2023/10/07 05:14:07;;;;;;;18.05;9.50;;;16.60;99.90;;;;;;5041950;28;20021;-76
2023/10/07 05:16:34;;;;;;;24.63;10.18;;;16.60;99.90;;;;;;5045133;28;20037;-78
2023/10/07 05:19:00;;;;;;;19.75;9.90;;;16.60;99.90;;;;;;5021789;28;20436;-76
2023/10/07 05:21:27;;;;;;;23.13;9.90;;;16.50;99.90;;;;;;5043563;28;20466;-74
2023/10/07 05:23:53;;;;;;;16.13;9.95;;;16.60;99.90;;;;;;5046399;28;20027;-74
2023/10/07 05:26:18;;;;;;;22.20;10.32;;;16.60;99.90;;;;;;5051458;28;20057;-74
2023/10/07 05:28:46;;;;;;;27.42;10.35;;;16.60;99.90;;;;;;5041725;28;20049;-74
2023/10/07 05:31:14;;;;;;;23.08;10.25;;;16.60;99.90;;;;;;5040480;28;20171;-74
2023/10/07 05:33:42;;;;;;;20.70;9.63;;;16.70;99.90;;;;;;5039162;28;20485;-73
2023/10/07 05:36:13;;;;;;;19.30;9.75;;;16.60;99.90;;;;;;5043411;28;20029;-75
2023/10/07 05:38:44;;;;;;;16.35;10.10;;;16.60;99.90;;;;;;5045913;28;20036;-75
2023/10/07 05:41:14;;;;;;;20.00;9.57;;;16.60;99.90;;;;;;5043622;28;20121;-74
2023/10/07 05:43:44;;;;;;;18.30;9.13;;;16.60;99.90;;;;;;5043250;28;20044;-75
2023/10/07 05:46:11;;;;;;;18.73;8.68;;;16.60;99.90;;;;;;5042474;28;20031;-76
2023/10/07 05:48:38;;;;;;;23.83;10.00;;;16.50;99.90;;;;;;5046655;28;20029;-75
2023/10/07 05:51:07;;;;;;;18.92;10.25;;;16.60;99.90;;;;;;5043727;28;20017;-74
2023/10/07 05:53:40;;;;;;;17.67;9.00;;;16.60;99.90;;;;;;5049450;28;20021;-73
2023/10/07 05:56:06;;;;;;;;;;;16.60;99.90;;;;;;5044381;28;20051;-74
2023/10/07 05:58:39;;;;;;;23.50;10.02;;;16.50;99.90;;;;;;5041525;28;19916;-74
2023/10/07 06:01:08;;;;;;;24.23;11.98;;;16.60;99.90;;;;;;5045860;28;20081;-75
2023/10/07 06:03:34;;;;;;;21.88;9.88;;;16.60;99.90;;;;;;5041557;28;20068;-74
2023/10/07 06:06:01;;;;;;;18.90;10.27;;;16.50;99.90;;;;;;5040626;28;20049;-74
2023/10/07 06:08:27;;;;;;;18.70;9.50;;;16.50;99.90;;;;;;5051292;28;20478;-74
2023/10/07 06:10:57;;;;;;;22.73;9.73;;;16.60;99.90;;;;;;5043648;28;20373;-75
2023/10/07 06:13:27;;;;;;;17.52;9.88;;;16.60;99.90;;;;;;5030125;28;20390;-75
2023/10/07 06:15:55;;;;;;;21.05;10.18;;;16.60;99.90;;;;;;5042730;28;20029;-76
2023/10/07 06:18:22;;;;;;;17.52;9.70;;;16.60;99.90;;;;;;5048708;28;20028;-78
2023/10/07 06:20:51;;;;;;;15.25;9.55;;;16.60;99.90;;;;;;5021553;28;20072;-75
2023/10/07 06:23:18;;;;;;;20.67;11.10;;;16.60;99.90;;;;;;5049079;28;20470;-75
2023/10/07 06:25:51;;;;;;;21.67;10.15;;;16.60;99.90;;;;;;5041246;28;20033;-77
2023/10/07 06:28:29;;;;;;;17.88;9.15;;;16.60;99.90;;;;;;5040946;28;20098;-78
2023/10/07 06:31:13;;;;;;;16.90;9.52;;;16.60;99.90;;;;;;5040731;28;20021;-74
2023/10/07 06:33:43;;;;;;;19.85;9.60;;;16.60;99.90;;;;;;5043562;28;20036;-77
2023/10/07 06:36:14;;;;;;;21.08;9.23;;;16.70;99.90;;;;;;5048587;28;20025;-76
2023/10/07 06:38:58;;;;;;;18.23;8.93;;;16.70;99.90;;;;;;5023306;28;20029;-75
2023/10/07 06:41:27;;;;;;;17.48;10.20;;;16.60;99.90;;;;;;5044597;28;20025;-76
2023/10/07 06:43:54;;;;;;;20.67;10.20;;;16.60;99.90;;;;;;5032941;28;20033;-76
2023/10/07 06:46:24;;;;;;;26.02;9.90;;;16.60;99.90;;;;;;5049099;28;20119;-78
2023/10/07 06:48:49;;;;;;;16.17;8.50;;;16.60;99.90;;;;;;5041589;28;20112;-74
2023/10/07 06:51:15;;;;;;;18.85;9.60;;;16.60;99.90;;;;;;5042621;28;20025;-75
2023/10/07 06:53:45;;;;;;;17.05;9.18;;;16.60;99.90;;;;;;5042029;28;20733;-74
2023/10/07 06:56:20;;;;;;;20.58;8.95;;;16.60;99.90;;;;;;5043116;28;20022;-74
2023/10/07 06:58:53;;;;;;;15.18;8.18;;;16.70;99.90;;;;;;5044403;28;21061;-75
2023/10/07 07:01:35;;;;;;;25.20;10.15;;;16.70;99.90;;;;;;5040742;28;20030;-77
2023/10/07 07:04:11;;;;;;;15.38;8.43;;;16.70;99.90;;;;;;5043799;28;20531;-75
2023/10/07 07:06:43;;;;;;;17.88;9.45;;;16.70;99.90;;;;;;5041538;28;20102;-75
2023/10/07 07:12:21;;;;;;;14.57;8.98;;;16.80;99.90;;;;;;4998677;28;20412;-76
2023/10/07 07:14:51;;;;;;;16.90;8.95;;;16.70;99.90;;;;;;4998484;28;20034;-76
2023/10/07 07:22:47;;;;;;;15.77;8.93;;;16.70;99.90;;;;;;5040020;28;20530;-76
2023/10/07 07:25:22;;;;;;;25.13;9.35;;;16.80;99.90;;;;;;5039097;28;20099;-75
2023/10/07 07:27:49;;;;;;;22.55;9.82;;;16.70;99.90;;;;;;5040424;28;20297;-75
2023/10/07 07:30:19;;;;;;;20.13;9.05;;;16.70;99.90;;;;;;5046178;28;20017;-76
2023/10/07 07:32:55;;;;;;;18.90;8.85;;;16.80;99.90;;;;;;5043692;28;20083;-75
2023/10/07 07:35:43;;;;;;;19.88;9.25;;;16.90;99.90;;;;;;5047743;28;20056;-75
2023/10/07 07:38:32;;;;;;;17.35;8.57;;;16.90;99.90;;;;;;5039326;28;20100;-75
2023/10/07 07:41:06;;;;;;;18.20;8.93;;;16.90;99.90;;;;;;5026796;28;20025;-76
2023/10/07 07:43:39;;;;;;;15.93;7.97;;;17.00;99.90;;;;;;5036228;28;20028;-75
2023/10/07 07:46:20;;;;;;;16.90;8.63;;;17.00;99.90;;;;;;5038122;28;20536;-76
2023/10/07 07:48:47;;;;;;;17.45;9.48;;;17.10;99.90;;;;;;5043871;28;20045;-77
2023/10/07 07:51:17;;;;;;;15.32;9.52;;;17.10;99.90;;;;;;5024941;28;20060;-76
2023/10/07 07:53:44;;;;;;;22.67;10.77;;;17.10;99.90;;;;;;5039439;28;20017;-77
2023/10/07 07:56:13;;;;;;;20.80;9.57;;;17.10;99.90;;;;;;5042665;28;20049;-77
2023/10/07 07:58:48;;;;;;;14.70;9.00;;;17.10;99.90;;;;;;5035634;28;20076;-75
2023/10/07 08:01:28;;;;;;;15.88;9.60;;;17.10;99.90;;;;;;5037227;28;20462;-75
2023/10/07 08:03:55;;;;;;;22.50;10.25;;;17.10;99.90;;;;;;5020047;28;20032;-76
2023/10/07 08:06:21;;;;;;;14.77;9.65;;;17.10;99.90;;;;;;5040336;28;20030;-80
2023/10/07 08:08:53;;;;;;;23.65;10.27;;;17.10;99.90;;;;;;5042368;28;20056;-78
2023/10/07 08:11:19;;;;;;;20.07;9.50;;;17.10;99.90;;;;;;5047529;28;20052;-79
2023/10/07 08:13:45;;;;;;;21.10;10.48;;;17.20;99.90;;;;;;5041968;28;20641;-78
2023/10/07 08:16:17;;;;;;;15.30;8.45;;;17.20;99.90;;;;;;5039857;28;20078;-79
2023/10/07 08:18:44;;;;;;;19.35;9.38;;;17.30;99.90;;;;;;5041149;28;20029;-79
2023/10/07 08:21:13;;;;;;;15.65;8.65;;;17.40;99.90;;;;;;5040423;28;20033;-78
2023/10/07 08:23:51;;;;;;;15.50;7.57;;;17.50;99.90;;;;;;5044032;28;20545;-79
2023/10/07 08:26:23;;;;;;;21.80;9.13;;;17.50;99.90;;;;;;5045908;28;20021;-80
2023/10/07 08:31:38;;;;;;;18.58;8.60;;;17.60;99.90;;;;;;5049273;28;20037;-79
2023/10/07 08:34:15;;;;;;;16.10;7.53;;;17.70;99.90;;;;;;5046525;28;20047;-78
2023/10/07 08:36:47;;;;;;;12.40;7.55;;;17.80;99.90;;;;;;5029756;28;20017;-77
2023/10/07 08:39:18;;;;;;;13.73;7.45;;;17.70;99.90;;;;;;5038837;28;20036;-78
2023/10/07 08:41:52;;;;;;;17.60;8.25;;;17.80;99.90;;;;;;5043786;28;20029;-78
2023/10/07 08:44:20;;;;;;;15.13;6.93;;;17.90;99.90;;;;;;5045133;28;20096;-78
2023/10/07 08:46:56;;;;;;;13.80;7.70;;;18.00;99.90;;;;;;5048704;28;20037;-79
2023/10/07 08:49:26;;;;;;;15.68;6.85;;;18.00;99.90;;;;;;5047433;28;20044;-79
2023/10/07 08:51:54;;;;;;;12.00;6.60;;;18.10;99.90;;;;;;5046453;28;20056;-79
2023/10/07 08:54:26;;;;;;;15.70;7.22;;;18.20;99.90;;;;;;5041822;28;20435;-77
2023/10/07 08:56:57;;;;;;;14.82;6.20;;;18.20;99.90;;;;;;5043626;28;20026;-79
2023/10/07 08:59:25;;;;;;;17.85;6.97;;;18.40;99.90;;;;;;5047301;28;20075;-79
2023/10/07 09:01:57;;;;;;;13.25;6.97;;;18.40;99.90;;;;;;5041148;28;20029;-79
2023/10/07 09:04:24;;;;;;;15.50;6.45;;;18.40;99.90;;;;;;5041342;28;20122;-80
2023/10/07 09:06:53;;;;;;;13.93;6.15;;;18.40;99.90;;;;;;5046451;28;20044;-80
2023/10/07 09:09:43;;;;;;;14.75;5.78;;;18.50;99.90;;;;;;5041612;28;20132;-79
2023/10/07 09:12:18;;;;;;;13.02;5.68;;;18.50;99.90;;;;;;5044892;28;20035;-78
2023/10/07 09:14:52;;;;;;;13.40;5.88;;;18.60;99.90;;;;;;5042992;28;20040;-79
2023/10/07 09:17:23;;;;;;;16.83;6.30;;;18.70;99.90;;;;;;5045051;28;20040;-79
2023/10/07 09:19:52;;;;;;;10.65;5.15;;;18.80;99.90;;;;;;5043410;28;20013;-78
2023/10/07 09:22:33;;;;;;;16.48;6.55;;;18.90;99.90;;;;;;5043730;28;20493;-78
2023/10/07 09:25:17;;;;;;;11.85;5.18;;;19.00;99.90;;;;;;5041442;28;20075;-79
2023/10/07 09:27:54;;;;;;;8.93;5.22;;;19.20;99.90;;;;;;5044005;28;20452;-78
2023/10/07 09:33:13;;;;;;;13.18;5.53;;;19.40;99.90;;;;;;5042414;28;20033;-78
2023/10/07 09:35:43;;;;;;;14.32;5.07;;;19.50;99.90;;;;;;5052025;28;20009;-80
2023/10/07 09:38:33;;;;;;;8.45;5.45;;;19.50;99.90;;;;;;5042920;28;20025;-80
2023/10/07 09:41:23;;;;;;;15.93;5.68;;;19.60;99.90;;;;;;5047839;28;20025;-81
2023/10/07 09:43:57;;;;;;;8.77;5.00;;;19.80;99.90;;;;;;5044918;28;20031;-79
2023/10/07 09:46:27;;;;;;;15.52;5.15;;;19.90;99.90;;;;;;5043317;28;20037;-79
2023/10/07 09:48:57;;;;;;;9.48;5.18;;;19.90;99.90;;;;;;5049345;28;20032;-80
2023/10/07 09:51:28;;;;;;;9.52;4.88;;;20.00;99.90;;;;;;5028667;28;20079;-76
2023/10/07 09:54:27;;;;;;;13.52;4.65;;;20.20;99.90;;;;;;5044626;28;20033;-74
2023/10/07 09:57:22;;;;;;;9.65;5.13;;;20.30;99.90;;;;;;5041861;28;20503;-76
2023/10/07 09:59:51;;;;;;;12.10;4.82;;;20.40;99.90;;;;;;5005853;28;20680;-76
2023/10/07 10:02:48;;;;;;;10.43;4.72;;;20.50;99.90;;;;;;5039702;28;20028;-76
2023/10/07 10:05:37;;;;;;;10.57;4.68;;;20.70;99.90;;;;;;5037915;28;20082;-77
2023/10/07 10:08:27;;;;;;;10.27;4.70;;;20.70;99.90;;;;;;5018872;28;20355;-77
2023/10/07 10:10:57;;;;;;;11.43;4.63;;;20.80;99.90;;;;;;5040854;28;20079;-76
2023/10/07 10:16:12;;;;;;;10.07;3.88;;;21.00;99.90;;;;;;5040209;28;20029;-76
2023/10/07 10:18:50;;;;;;;10.55;4.35;;;21.10;99.90;;;;;;5036397;28;20120;-75
2023/10/07 10:21:22;;;;;;;11.65;4.13;;;21.30;99.90;;;;;;5021836;28;20021;-75
2023/10/07 10:23:51;;;;;;;9.52;4.65;;;21.40;99.90;;;;;;5040837;28;20033;-79
2023/10/07 10:26:22;;;;;;;8.23;4.03;;;21.50;99.90;;;;;;5038900;28;20035;-77
2023/10/07 10:29:20;;;;;;;9.38;4.63;;;21.50;99.90;;;;;;5037373;28;20022;-77
2023/10/07 10:31:58;;;;;;;8.25;3.58;;;21.60;99.90;;;;;;5036497;28;20481;-77
2023/10/07 10:34:26;;;;;;;8.50;4.05;;;21.70;99.90;;;;;;5038882;28;20116;-77
2023/10/07 10:36:55;;;;;;;12.88;4.47;;;21.80;99.90;;;;;;5036802;28;20025;-77
2023/10/07 10:39:25;;;;;;;9.63;4.47;;;21.80;99.90;;;;;;5036007;28;20025;-78
2023/10/07 10:41:54;;;;;;;8.20;4.20;;;21.80;99.90;;;;;;5037774;28;20063;-78
2023/10/07 10:44:21;;;;;;;10.40;4.03;;;21.90;99.90;;;;;;5038228;28;20028;-77
2023/10/07 10:46:49;;;;;;;10.68;3.97;;;22.00;99.90;;;;;;5036854;28;20402;-77
2023/10/07 10:49:20;;;;;;;7.68;4.32;;;22.10;99.90;;;;;;5034714;28;20029;-78
2023/10/07 10:51:50;;;;;;;6.77;3.93;;;22.20;99.90;;;;;;5035640;28;20060;-80
2023/10/07 10:54:20;;;;;;;7.18;3.85;;;22.30;99.90;;;;;;5038975;28;20021;-78
2023/10/07 10:56:57;;;;;;;7.70;3.88;;;22.40;99.90;;;;;;5037191;28;20033;-79
2023/10/07 10:59:36;;;;;;;10.43;4.03;;;22.50;99.90;;;;;;5031803;28;20478;-77
2023/10/07 11:02:05;;;;;;;8.90;4.20;;;22.50;99.90;;;;;;5035455;28;20017;-77
2023/10/07 11:04:31;;;;;;;11.90;4.45;;;22.50;99.90;;;;;;5038113;28;20036;-77
2023/10/07 11:06:58;;;;;;;8.80;3.83;;;22.60;99.90;;;;;;5035264;28;20045;-78
2023/10/07 11:09:42;;;;;;;10.50;3.95;;;22.70;99.90;;;;;;5038663;28;20544;-78
2023/10/07 11:12:16;;;;;;;6.75;4.10;;;22.70;99.90;;;;;;5035300;28;20013;-77
2023/10/07 11:14:44;;;;;;;7.50;4.10;;;22.80;99.90;;;;;;5038113;28;20049;-78
2023/10/07 11:17:12;;;;;;;5.10;3.63;;;22.90;99.90;;;;;;5041511;28;20029;-78
2023/10/07 11:19:45;;;;;;;7.13;3.97;;;22.80;99.90;;;;;;5036307;28;20433;-77
2023/10/07 11:22:20;;;;;;;6.55;3.50;;;22.80;99.90;;;;;;5033459;28;20017;-76
2023/10/07 11:24:50;;;;;;;6.57;3.88;;;22.80;99.90;;;;;;5037105;28;20037;-77
2023/10/07 11:27:23;;;;;;;9.85;3.80;;;22.90;99.90;;;;;;5035418;28;20037;-77
2023/10/07 11:30:03;;;;;;;6.18;3.90;;;23.00;99.90;;;;;;5038177;28;20037;-78
2023/10/07 11:32:30;;;;;;;4.80;3.60;;;23.00;99.90;;;;;;5037971;28;20500;-78
2023/10/07 11:34:57;;;;;;;6.25;3.63;;;23.00;99.90;;;;;;5014399;28;20021;-77
2023/10/07 11:37:23;;;;;;;8.60;4.18;;;23.10;99.90;;;;;;5037350;28;20043;-78
2023/10/07 11:39:50;;;;;;;8.25;3.50;;;23.10;99.90;;;;;;5034352;28;20473;-77
2023/10/07 11:42:21;;;;;;;8.32;3.35;;;23.10;99.90;;;;;;5035009;28;20021;-77
2023/10/07 11:44:53;;;;;;;7.25;4.10;;;23.20;99.90;;;;;;5035800;28;20029;-77
2023/10/07 11:47:19;;;;;;;7.43;3.60;;;23.20;99.90;;;;;;5039846;28;20056;-78
2023/10/07 11:49:48;;;;;;;6.38;3.55;;;23.30;99.90;;;;;;5037795;28;20052;-77
2023/10/07 11:52:19;;;;;;;7.03;3.63;;;23.30;99.90;;;;;;5036598;28;20018;-77
2023/10/07 11:54:48;;;;;;;8.82;4.00;;;23.20;99.90;;;;;;5036360;28;20044;-78
2023/10/07 11:57:17;;;;;;;9.50;3.92;;;23.20;99.90;;;;;;5038404;28;20068;-80
2023/10/07 11:59:44;;;;;;;7.93;4.22;;;23.30;99.90;;;;;;5035757;28;20421;-80
2023/10/07 12:02:11;;;;;;;6.15;3.40;;;23.30;99.90;;;;;;5033377;28;20025;-78
2023/10/07 12:04:41;;;;;;;6.13;4.18;;;23.40;99.90;;;;;;5034131;28;20060;-76
2023/10/07 12:07:14;;;;;;;9.98;4.30;;;23.30;99.90;;;;;;5041359;28;20029;-79
2023/10/07 12:09:40;;;;;;;;;;;23.40;99.90;;;;;;5038107;28;20021;-77
2023/10/07 12:12:09;;;;;;;6.90;3.78;;;23.40;99.90;;;;;;5039811;28;19908;-78
2023/10/07 12:14:36;;;;;;;7.30;4.05;;;23.50;99.90;;;;;;5039906;28;20039;-78
2023/10/07 12:17:04;;;;;;;9.32;3.70;;;23.40;99.90;;;;;;5039926;28;20025;-76
2023/10/07 12:19:31;;;;;;;14.65;4.38;;;23.30;99.90;;;;;;5041034;28;20467;-77
2023/10/07 12:21:59;;;;;;;8.40;3.90;;;23.30;99.90;;;;;;5042874;28;20021;-77
2023/10/07 12:24:24;;;;;;;8.80;4.25;;;23.20;99.90;;;;;;5037574;28;20021;-77
2023/10/07 12:26:50;;;;;;;9.93;3.70;;;23.20;99.90;;;;;;5040290;28;20117;-76
2023/10/07 12:29:19;;;;;;;8.68;3.88;;;23.20;99.90;;;;;;5040862;28;20040;-77
2023/10/07 12:31:47;;;;;;;8.43;4.13;;;23.20;99.90;;;;;;5038585;28;20053;-77
2023/10/07 12:34:16;;;;;;;10.27;4.43;;;23.30;99.90;;;;;;5040375;28;20021;-78
2023/10/07 12:36:45;;;;;;;7.82;3.78;;;23.20;99.90;;;;;;5043845;28;20458;-77
2023/10/07 12:39:11;;;;;;;7.05;4.00;;;23.30;99.90;;;;;;5041981;28;20040;-77
2023/10/07 12:41:40;;;;;;;9.57;4.43;;;23.30;99.90;;;;;;5038132;28;20025;-78
2023/10/07 12:44:10;;;;;;;7.47;3.90;;;23.30;99.90;;;;;;5039406;28;20033;-78
2023/10/07 12:46:40;;;;;;;8.25;4.70;;;23.30;99.90;;;;;;5038492;28;20033;-76
2023/10/07 12:49:10;;;;;;;7.63;4.22;;;23.20;99.90;;;;;;5041102;28;20103;-76
2023/10/07 12:51:45;;;;;;;9.13;4.60;;;23.20;99.90;;;;;;5040774;28;20027;-75
2023/10/07 12:54:12;;;;;;;7.40;4.93;;;23.10;99.90;;;;;;5040789;28;20033;-78
2023/10/07 12:56:38;;;;;;;11.07;4.70;;;23.20;99.90;;;;;;5036576;28;20603;-78
2023/10/07 12:59:24;;;;;;;6.57;4.53;;;23.10;99.90;;;;;;5039548;28;20028;-77
2023/10/07 13:01:51;;;;;;;9.50;4.90;;;23.10;99.90;;;;;;5041958;28;20029;-78
2023/10/07 13:04:25;;;;;;;13.35;4.47;;;23.20;99.90;;;;;;5040692;28;20342;-81
2023/10/07 13:07:00;;;;;;;7.75;4.90;;;23.20;99.90;;;;;;5037976;28;20052;-78
2023/10/07 13:09:30;;;;;;;8.55;4.43;;;23.20;99.90;;;;;;5037379;28;20041;-76
2023/10/07 13:11:57;;;;;;;10.98;4.32;;;23.20;99.90;;;;;;5036445;28;20039;-76
2023/10/07 13:14:27;;;;;;;8.93;4.88;;;23.30;99.90;;;;;;5040491;28;20025;-80
2023/10/07 13:16:57;;;;;;;9.27;4.75;;;23.10;99.90;;;;;;5038124;28;20032;-78
2023/10/07 13:19:26;;;;;;;9.98;4.38;;;23.10;99.90;;;;;;5038972;28;20029;-77
2023/10/07 13:21:58;;;;;;;11.38;4.95;;;23.10;99.90;;;;;;5038140;28;20056;-77
2023/10/07 13:24:25;;;;;;;13.55;5.35;;;23.10;99.90;;;;;;5039892;28;20029;-78
2023/10/07 13:26:51;;;;;;;10.40;4.60;;;23.00;99.90;;;;;;5034743;28;20025;-77
2023/10/07 13:29:16;;;;;;;10.70;5.00;;;23.10;99.90;;;;;;5040553;28;20033;-78
2023/10/07 13:31:43;;;;;;;7.85;4.40;;;23.10;99.90;;;;;;5037720;28;20100;-78
2023/10/07 13:34:10;;;;;;;9.25;4.70;;;23.10;99.90;;;;;;5036164;28;20106;-78
2023/10/07 13:36:42;;;;;;;9.25;4.60;;;23.10;99.90;;;;;;5038876;28;20044;-81
2023/10/07 13:39:17;;;;;;;6.18;4.93;;;23.10;99.90;;;;;;5038622;28;20025;-77